Elkhorn, Wisconsin
Current Conditions -  °F | °C
As of 12:15 PM on Tuesday 21 Oct 2014 (Local Time) from KBUU Reporting Station
Overcast Overcast  
Wind Chill: 42°   Ceiling: 2700
Heat Index: 47°   Visibility: 10mi
Dew Point: 37°   Wind: 9mph
Humidity: 68%   Direction: 10°N
Pressure: 30.21"   Gusts: 16mph
Location:  42.67°N, 88.54°W
Report Text: KBUU 211715Z AUTO 01008G14KT 10SM OVC027 08/03 A3021 RMK AO2 T00820027
Loading
Personal Weather Stations






























Interactive Weather Map
Tropical Storm Tracking
New forecast layout! Learn more

10-Day Weather Forecast

Advertisements
Track Severe Weather on mobile